createdAt,value
2022-11-23T00:00:34.443Z,4.40
2022-11-23T00:03:01.178Z,4.40
2022-11-23T00:05:29.004Z,4.40
2022-11-23T00:07:55.753Z,4.40
2022-11-23T00:10:22.527Z,4.40
2022-11-23T00:12:49.322Z,4.50
2022-11-23T00:15:16.179Z,4.50
2022-11-23T00:17:42.971Z,4.40
2022-11-23T00:20:10.036Z,4.40
2022-11-23T00:22:36.754Z,4.40
2022-11-23T00:25:03.667Z,4.40
2022-11-23T00:27:30.420Z,4.40
2022-11-23T00:29:57.350Z,4.40
2022-11-23T00:32:24.095Z,4.40
2022-11-23T00:34:50.823Z,4.40
2022-11-23T00:37:17.495Z,4.40
2022-11-23T00:39:44.251Z,4.40
2022-11-23T00:42:10.949Z,4.40
2022-11-23T00:44:37.641Z,4.40
2022-11-23T00:47:04.337Z,4.40
2022-11-23T00:49:31.260Z,4.40
2022-11-23T00:51:58.355Z,4.40
2022-11-23T00:54:25.093Z,4.40
2022-11-23T00:56:51.836Z,4.40
2022-11-23T00:59:18.495Z,4.40
2022-11-23T01:01:45.251Z,4.40
2022-11-23T01:04:12.030Z,4.40
2022-11-23T01:06:39.517Z,4.40
2022-11-23T01:09:13.462Z,4.40
2022-11-23T01:11:40.293Z,4.40
2022-11-23T01:14:07.253Z,4.40
2022-11-23T01:16:36.028Z,4.40
2022-11-23T01:19:04.901Z,4.40
2022-11-23T01:21:32.285Z,4.40
2022-11-23T01:23:59.141Z,4.40
2022-11-23T01:26:26.103Z,4.40
2022-11-23T01:28:52.926Z,4.40
2022-11-23T01:31:21.730Z,4.40
2022-11-23T01:33:48.684Z,4.40
2022-11-23T01:36:16.395Z,4.40
2022-11-23T01:38:43.388Z,4.40
2022-11-23T01:41:15.788Z,4.40
2022-11-23T01:43:42.548Z,4.40
2022-11-23T01:46:09.463Z,4.40
2022-11-23T01:48:40.523Z,4.40
2022-11-23T01:51:10.460Z,4.40
2022-11-23T01:53:37.358Z,4.40
2022-11-23T01:56:05.234Z,4.40
2022-11-23T01:58:33.125Z,4.40
2022-11-23T02:00:59.890Z,4.40
2022-11-23T02:03:27.863Z,4.40
2022-11-23T02:05:59.310Z,4.40
2022-11-23T02:08:26.015Z,4.40
2022-11-23T02:10:52.887Z,4.40
2022-11-23T02:13:19.629Z,4.40
2022-11-23T02:15:46.399Z,4.40
2022-11-23T02:18:25.324Z,4.40
2022-11-23T02:20:52.046Z,4.40
2022-11-23T02:23:24.362Z,4.40
2022-11-23T02:25:59.561Z,4.40
2022-11-23T02:28:29.337Z,4.40
2022-11-23T02:30:56.072Z,4.40
2022-11-23T02:33:22.985Z,4.40
2022-11-23T02:35:54.830Z,4.40
2022-11-23T02:38:21.709Z,4.40
2022-11-23T02:40:48.589Z,4.40
2022-11-23T02:43:30.562Z,4.40
2022-11-23T02:45:57.987Z,4.40
2022-11-23T02:48:24.797Z,4.40
2022-11-23T02:50:51.500Z,4.40
2022-11-23T02:53:18.231Z,4.40
2022-11-23T02:55:44.899Z,4.40
2022-11-23T02:58:11.731Z,4.40
2022-11-23T03:00:38.627Z,4.40
2022-11-23T03:03:05.706Z,4.40
2022-11-23T03:05:32.443Z,4.40
2022-11-23T03:07:59.159Z,4.40
2022-11-23T03:10:25.868Z,4.40
2022-11-23T03:12:55.267Z,4.40
2022-11-23T03:15:22.246Z,4.40
2022-11-23T03:17:48.973Z,4.40
2022-11-23T03:20:16.467Z,4.50
2022-11-23T03:22:43.320Z,4.50
2022-11-23T03:25:10.406Z,4.50
2022-11-23T03:27:38.582Z,4.50
2022-11-23T03:30:07.407Z,4.50
2022-11-23T03:32:34.635Z,4.50
2022-11-23T03:35:02.020Z,4.40
2022-11-23T03:37:28.731Z,4.40
2022-11-23T03:39:55.452Z,4.40
2022-11-23T03:42:22.251Z,4.40
2022-11-23T03:44:48.987Z,4.40
2022-11-23T03:47:16.472Z,4.50
2022-11-23T03:49:43.280Z,4.50
2022-11-23T03:52:10.056Z,4.50
2022-11-23T03:54:36.767Z,4.50
2022-11-23T03:57:03.503Z,4.50
2022-11-23T03:59:30.448Z,4.50
2022-11-23T04:01:57.324Z,4.50
2022-11-23T04:04:24.146Z,4.50
2022-11-23T04:06:50.854Z,4.50
2022-11-23T04:09:17.569Z,4.50
2022-11-23T04:11:44.287Z,4.50
2022-11-23T04:14:11.010Z,4.40
2022-11-23T04:16:37.715Z,4.40
2022-11-23T04:19:04.445Z,4.50
2022-11-23T04:21:31.187Z,4.50
2022-11-23T04:23:57.924Z,4.50
2022-11-23T04:26:24.636Z,4.50
2022-11-23T04:28:51.375Z,4.40
2022-11-23T04:31:18.159Z,4.50
2022-11-23T04:33:44.846Z,4.50
2022-11-23T04:36:11.882Z,4.50
2022-11-23T04:38:38.965Z,4.50
2022-11-23T04:41:05.656Z,4.50
2022-11-23T04:43:32.538Z,4.50
2022-11-23T04:45:59.264Z,4.50
2022-11-23T04:48:25.978Z,4.50
2022-11-23T04:50:55.659Z,4.40
2022-11-23T04:53:22.737Z,4.40
2022-11-23T04:55:49.499Z,4.40
2022-11-23T04:58:16.233Z,4.40
2022-11-23T05:00:43.218Z,4.40
2022-11-23T05:03:09.991Z,4.40
2022-11-23T05:05:40.159Z,4.40
2022-11-23T05:08:07.069Z,4.40
2022-11-23T05:10:33.944Z,4.40
2022-11-23T05:13:00.678Z,4.40
2022-11-23T05:15:27.420Z,4.30
2022-11-23T05:17:58.982Z,4.40
2022-11-23T05:20:26.053Z,4.40
2022-11-23T05:22:52.783Z,4.40
2022-11-23T05:25:19.582Z,4.30
2022-11-23T05:27:46.344Z,4.30
2022-11-23T05:30:13.702Z,4.40
2022-11-23T05:32:40.379Z,4.30
2022-11-23T05:35:07.764Z,4.30
2022-11-23T05:37:34.654Z,4.30
2022-11-23T05:40:01.759Z,4.30
2022-11-23T05:42:28.544Z,4.30
2022-11-23T05:44:55.649Z,4.30
2022-11-23T05:47:22.387Z,4.30
2022-11-23T05:49:50.470Z,4.30
2022-11-23T05:52:17.618Z,4.30
2022-11-23T05:54:44.409Z,4.30
2022-11-23T05:57:11.199Z,4.30
2022-11-23T05:59:37.919Z,4.30
2022-11-23T06:02:04.682Z,4.30
2022-11-23T06:04:31.393Z,4.30
2022-11-23T06:07:00.924Z,4.30
2022-11-23T06:09:28.388Z,4.40
2022-11-23T06:11:55.341Z,4.40
2022-11-23T06:14:22.419Z,4.40
2022-11-23T06:16:49.359Z,4.30
2022-11-23T06:19:16.180Z,4.40
2022-11-23T06:21:47.426Z,4.30
2022-11-23T06:24:16.931Z,4.40
2022-11-23T06:26:43.633Z,4.30
2022-11-23T06:29:10.469Z,4.40
2022-11-23T06:31:37.221Z,4.30
2022-11-23T06:34:05.962Z,4.40
2022-11-23T06:36:32.735Z,4.40
2022-11-23T06:38:59.496Z,4.40
2022-11-23T06:41:32.091Z,4.40
2022-11-23T06:43:59.213Z,4.40
2022-11-23T06:46:25.951Z,4.30
2022-11-23T06:48:52.702Z,4.40
2022-11-23T06:51:19.486Z,4.30
2022-11-23T06:53:46.177Z,4.40
2022-11-23T06:56:12.979Z,4.40
2022-11-23T06:58:39.793Z,4.40
2022-11-23T07:01:07.745Z,4.40
2022-11-23T07:03:35.211Z,4.40
2022-11-23T07:06:08.818Z,4.40
2022-11-23T07:08:36.318Z,4.40
2022-11-23T07:11:03.479Z,4.40
2022-11-23T07:13:30.231Z,4.40
2022-11-23T07:15:58.468Z,4.40
2022-11-23T07:18:25.908Z,4.40
2022-11-23T07:20:52.714Z,4.40
2022-11-23T07:23:19.501Z,4.40
2022-11-23T07:25:46.418Z,4.40
2022-11-23T07:28:14.240Z,4.40
2022-11-23T07:30:40.978Z,4.50
2022-11-23T07:33:09.608Z,4.40
2022-11-23T07:35:37.379Z,4.50
2022-11-23T07:38:04.200Z,4.50
2022-11-23T07:40:31.118Z,4.50
2022-11-23T07:43:01.907Z,4.50
2022-11-23T07:45:29.357Z,4.50
2022-11-23T07:48:04.089Z,4.50
2022-11-23T07:50:30.848Z,4.60
2022-11-23T07:52:57.575Z,4.60
2022-11-23T07:55:24.634Z,4.60
2022-11-23T07:57:54.727Z,4.70
2022-11-23T08:00:22.291Z,4.70
2022-11-23T08:03:11.788Z,4.70
2022-11-23T08:05:36.264Z,4.60
2022-11-23T08:08:03.402Z,4.70
2022-11-23T08:10:30.785Z,4.60
2022-11-23T08:13:01.311Z,4.60
2022-11-23T08:15:30.791Z,4.70
2022-11-23T08:17:58.282Z,4.60
2022-11-23T08:20:25.499Z,4.70
2022-11-23T08:22:52.896Z,4.70
2022-11-23T08:25:19.635Z,4.70
2022-11-23T08:27:46.380Z,4.70
2022-11-23T08:30:13.756Z,4.70
2022-11-23T08:32:40.549Z,4.80
2022-11-23T08:35:07.547Z,4.80
2022-11-23T08:37:34.335Z,4.80
2022-11-23T08:40:01.039Z,4.80
2022-11-23T08:42:27.789Z,4.80
2022-11-23T08:44:54.521Z,4.80
2022-11-23T08:47:21.301Z,4.80
2022-11-23T08:49:48.010Z,4.80
2022-11-23T08:52:14.917Z,4.90
2022-11-23T08:54:41.668Z,4.90
2022-11-23T08:57:08.435Z,4.90
2022-11-23T08:59:35.326Z,5.00
2022-11-23T09:02:02.121Z,5.00
2022-11-23T09:04:30.916Z,5.00
2022-11-23T09:06:57.695Z,5.00
2022-11-23T09:09:24.485Z,5.00
2022-11-23T09:11:51.437Z,5.00
2022-11-23T09:14:18.524Z,5.00
2022-11-23T09:16:45.263Z,5.10
2022-11-23T09:19:13.511Z,5.10
2022-11-23T09:21:42.290Z,5.10
2022-11-23T09:24:12.464Z,5.20
2022-11-23T09:26:39.941Z,5.20
2022-11-23T09:29:07.189Z,5.20
2022-11-23T09:31:34.187Z,5.20
2022-11-23T09:34:00.916Z,5.30
2022-11-23T09:36:27.765Z,5.30
2022-11-23T09:38:56.944Z,5.30
2022-11-23T09:41:45.937Z,5.40
2022-11-23T09:44:38.345Z,5.40
2022-11-23T09:47:33.777Z,5.30
2022-11-23T09:50:11.399Z,5.30
2022-11-23T09:52:43.336Z,5.30
2022-11-23T09:55:20.228Z,5.30
2022-11-23T09:57:46.927Z,5.30
2022-11-23T10:00:21.431Z,5.30
2022-11-23T10:02:48.366Z,5.40
2022-11-23T10:05:22.031Z,5.40
2022-11-23T10:08:10.694Z,5.40
2022-11-23T10:11:23.517Z,5.40
2022-11-23T10:14:18.916Z,5.40
2022-11-23T10:17:13.189Z,5.40
2022-11-23T10:19:54.525Z,5.40
2022-11-23T10:22:27.598Z,5.50
2022-11-23T10:24:54.323Z,5.60
2022-11-23T10:27:22.262Z,5.70
2022-11-23T10:29:49.292Z,5.60
2022-11-23T10:32:39.005Z,5.70
2022-11-23T10:35:24.045Z,5.70
2022-11-23T10:37:53.572Z,5.70
2022-11-23T10:40:24.262Z,5.70
2022-11-23T10:42:58.457Z,5.70
2022-11-23T10:45:28.804Z,5.70
2022-11-23T10:48:01.582Z,5.70
2022-11-23T10:50:30.287Z,5.70
2022-11-23T10:53:01.618Z,5.80
2022-11-23T10:55:47.898Z,5.80
2022-11-23T10:58:41.839Z,5.70
2022-11-23T11:01:16.718Z,5.80
2022-11-23T11:03:43.494Z,5.80
2022-11-23T11:06:11.197Z,5.80
2022-11-23T11:09:28.668Z,5.80
2022-11-23T11:11:55.349Z,5.80
2022-11-23T11:14:25.300Z,5.80
2022-11-23T11:16:56.199Z,5.90
2022-11-23T11:19:43.227Z,5.90
2022-11-23T11:22:35.524Z,5.90
2022-11-23T11:25:04.699Z,5.90
2022-11-23T11:27:32.193Z,5.80
2022-11-23T11:30:05.725Z,5.90
2022-11-23T11:32:35.043Z,5.90
2022-11-23T11:35:20.458Z,6.00
2022-11-23T11:37:49.190Z,6.00
2022-11-23T11:40:45.280Z,6.10
2022-11-23T11:43:32.610Z,6.10
2022-11-23T11:46:28.407Z,6.00
2022-11-23T11:48:57.836Z,6.00
2022-11-23T11:51:26.431Z,6.00
2022-11-23T11:54:03.968Z,6.00
2022-11-23T11:56:34.932Z,6.00
2022-11-23T11:59:13.047Z,6.00
2022-11-23T12:01:59.633Z,6.00
2022-11-23T12:04:35.214Z,6.10
2022-11-23T12:07:11.051Z,6.00
2022-11-23T12:09:40.657Z,6.00
2022-11-23T12:12:14.349Z,6.10
2022-11-23T12:14:41.055Z,6.10
2022-11-23T12:17:35.854Z,6.10
2022-11-23T12:20:08.642Z,6.10
2022-11-23T12:23:01.074Z,6.10
2022-11-23T12:25:38.291Z,6.10
2022-11-23T12:28:35.349Z,6.20
2022-11-23T12:31:23.776Z,6.10
2022-11-23T12:37:01.284Z,6.00
2022-11-23T12:39:54.364Z,6.10
2022-11-23T12:42:26.070Z,6.10
2022-11-23T12:45:07.125Z,6.00
2022-11-23T12:47:48.691Z,6.00
2022-11-23T12:50:27.784Z,6.00
2022-11-23T12:53:08.661Z,6.00
2022-11-23T12:55:40.208Z,6.00
2022-11-23T12:58:16.428Z,6.00
2022-11-23T13:00:49.758Z,6.00
2022-11-23T13:03:42.532Z,6.00
2022-11-23T13:06:27.553Z,6.10
2022-11-23T13:09:12.394Z,6.10
2022-11-23T13:11:50.806Z,6.10
2022-11-23T13:14:28.967Z,6.00
2022-11-23T13:17:17.794Z,6.00
2022-11-23T13:19:57.992Z,6.00
2022-11-23T13:22:24.804Z,6.00
2022-11-23T13:25:13.541Z,6.10
2022-11-23T13:27:45.138Z,6.10
2022-11-23T13:33:34.311Z,6.00
2022-11-23T13:36:09.577Z,6.00
2022-11-23T13:38:40.901Z,6.00
2022-11-23T13:41:35.785Z,6.00
2022-11-23T13:44:11.737Z,6.00
2022-11-23T13:46:38.442Z,6.00
2022-11-23T13:49:19.115Z,6.10
2022-11-23T13:51:45.784Z,6.00
2022-11-23T13:54:22.643Z,6.00
2022-11-23T13:56:57.685Z,6.00
2022-11-23T13:59:24.401Z,6.00
2022-11-23T14:02:00.473Z,6.10
2022-11-23T14:04:32.172Z,6.10
2022-11-23T14:07:23.520Z,6.10
2022-11-23T14:10:17.075Z,6.10
2022-11-23T14:12:54.792Z,6.00
2022-11-23T14:15:22.926Z,5.90
2022-11-23T14:18:16.890Z,5.90
2022-11-23T14:21:12.636Z,5.90
2022-11-23T14:24:00.357Z,5.90
2022-11-23T14:26:35.815Z,5.90
2022-11-23T14:29:29.747Z,5.90
2022-11-23T14:32:15.226Z,5.90
2022-11-23T14:35:15.903Z,5.80
2022-11-23T14:38:13.058Z,5.80
2022-11-23T14:40:51.313Z,5.70
2022-11-23T14:43:21.077Z,5.70
2022-11-23T14:45:47.938Z,5.70
2022-11-23T14:48:34.074Z,5.80
2022-11-23T14:51:03.525Z,5.80
2022-11-23T14:53:33.660Z,5.70
2022-11-23T14:56:00.418Z,5.70
2022-11-23T14:58:28.576Z,5.70
2022-11-23T15:01:01.817Z,5.70
2022-11-23T15:06:17.384Z,5.70
2022-11-23T15:08:45.915Z,5.60
2022-11-23T15:11:21.549Z,5.70
2022-11-23T15:13:50.434Z,5.60
2022-11-23T15:16:18.624Z,5.60
2022-11-23T15:18:45.555Z,5.60
2022-11-23T15:21:12.380Z,5.60
2022-11-23T15:23:41.131Z,5.60
2022-11-23T15:26:42.068Z,5.60
2022-11-23T15:29:05.133Z,5.50
2022-11-23T15:31:36.312Z,5.50
2022-11-23T15:34:13.832Z,5.50
2022-11-23T15:36:40.938Z,5.50
2022-11-23T15:39:10.278Z,5.40
2022-11-23T15:41:37.024Z,5.40
2022-11-23T15:44:27.708Z,5.40
2022-11-23T15:46:58.585Z,5.40
2022-11-23T15:49:25.364Z,5.30
2022-11-23T15:51:55.222Z,5.30
2022-11-23T15:54:40.383Z,5.20
2022-11-23T15:57:09.571Z,5.20
2022-11-23T15:59:49.959Z,5.20
2022-11-23T16:02:25.721Z,5.20
2022-11-23T16:05:17.860Z,5.10
2022-11-23T16:07:55.007Z,5.10
2022-11-23T16:10:24.627Z,5.10
2022-11-23T16:12:53.143Z,5.00
2022-11-23T16:15:37.939Z,5.10
2022-11-23T16:18:05.906Z,5.10
2022-11-23T16:20:32.778Z,5.10
2022-11-23T16:23:00.295Z,5.00
2022-11-23T16:25:34.186Z,5.00
2022-11-23T16:28:04.936Z,5.00
2022-11-23T16:30:42.478Z,5.00
2022-11-23T16:33:16.978Z,5.00
2022-11-23T16:35:43.762Z,5.00
2022-11-23T16:38:12.575Z,5.00
2022-11-23T16:40:39.892Z,5.00
2022-11-23T16:43:06.668Z,5.00
2022-11-23T16:45:33.414Z,5.00
2022-11-23T16:48:01.137Z,4.90
2022-11-23T16:50:32.221Z,4.90
2022-11-23T16:53:10.272Z,4.90
2022-11-23T16:55:42.234Z,4.90
2022-11-23T16:58:11.604Z,4.90
2022-11-23T17:00:38.343Z,4.80
2022-11-23T17:03:05.242Z,4.90
2022-11-23T17:05:31.985Z,4.80
2022-11-23T17:07:58.768Z,4.90
2022-11-23T17:10:25.517Z,4.90
2022-11-23T17:12:53.632Z,4.90
2022-11-23T17:15:21.265Z,5.00
2022-11-23T17:17:48.115Z,5.00
2022-11-23T17:20:18.202Z,4.90
2022-11-23T17:22:45.073Z,4.90
2022-11-23T17:25:14.909Z,4.90
2022-11-23T17:27:42.301Z,4.90
2022-11-23T17:30:20.721Z,4.90
2022-11-23T17:32:48.679Z,4.90
2022-11-23T17:35:15.713Z,4.90
2022-11-23T17:37:42.608Z,4.90
2022-11-23T17:40:16.689Z,4.90
2022-11-23T17:42:43.653Z,4.90
2022-11-23T17:45:10.910Z,4.90
2022-11-23T17:47:38.296Z,4.90
2022-11-23T17:50:07.067Z,4.90
2022-11-23T17:52:33.922Z,4.90
2022-11-23T17:55:00.731Z,4.90
2022-11-23T17:57:30.690Z,4.90
2022-11-23T18:00:02.195Z,4.90
2022-11-23T18:02:30.352Z,4.90
2022-11-23T18:04:58.466Z,4.90
2022-11-23T18:07:25.514Z,4.80
2022-11-23T18:09:52.732Z,4.90
2022-11-23T18:12:19.472Z,4.80
2022-11-23T18:14:46.337Z,4.90
2022-11-23T18:17:13.173Z,4.90
2022-11-23T18:19:40.018Z,4.90
2022-11-23T18:22:06.826Z,4.90
2022-11-23T18:24:33.556Z,4.90
2022-11-23T18:27:00.665Z,4.90
2022-11-23T18:29:27.415Z,4.90
2022-11-23T18:31:54.194Z,4.90
2022-11-23T18:34:20.896Z,4.90
2022-11-23T18:36:47.576Z,4.80
2022-11-23T18:39:14.356Z,4.80
2022-11-23T18:41:41.022Z,4.80
2022-11-23T18:44:07.997Z,4.70
2022-11-23T18:46:34.842Z,4.80
2022-11-23T18:49:01.707Z,4.80
2022-11-23T18:51:28.502Z,4.80
2022-11-23T18:53:55.749Z,4.80
2022-11-23T18:56:22.611Z,4.80
2022-11-23T18:58:49.425Z,4.80
2022-11-23T19:01:18.116Z,4.80
2022-11-23T19:03:45.837Z,4.80
2022-11-23T19:06:15.757Z,4.80
2022-11-23T19:08:46.591Z,4.80
2022-11-23T19:11:19.651Z,4.80
2022-11-23T19:13:48.137Z,4.80
2022-11-23T19:16:16.698Z,4.80
2022-11-23T19:18:43.537Z,4.80
2022-11-23T19:21:17.824Z,4.80
2022-11-23T19:23:44.981Z,4.80
2022-11-23T19:26:11.757Z,4.80
2022-11-23T19:28:40.010Z,4.80
2022-11-23T19:31:11.127Z,4.80
2022-11-23T19:33:37.908Z,4.80
2022-11-23T19:36:06.543Z,4.70
2022-11-23T19:38:33.318Z,4.70
2022-11-23T19:41:00.083Z,4.70
2022-11-23T19:43:26.895Z,4.70
2022-11-23T19:45:57.638Z,4.70
2022-11-23T19:48:24.458Z,4.70
2022-11-23T19:51:15.336Z,4.70
2022-11-23T19:53:42.573Z,4.70
2022-11-23T19:56:20.205Z,4.70
2022-11-23T19:58:47.042Z,4.70
2022-11-23T20:01:15.401Z,4.70
2022-11-23T20:03:43.571Z,4.70
2022-11-23T20:06:21.587Z,4.70
2022-11-23T20:08:48.580Z,4.70
2022-11-23T20:11:16.474Z,4.70
2022-11-23T20:13:43.526Z,4.70
2022-11-23T20:16:12.632Z,4.70
2022-11-23T20:18:40.047Z,4.60
2022-11-23T20:21:13.380Z,4.60
2022-11-23T20:23:40.813Z,4.60
2022-11-23T20:26:07.843Z,4.60
2022-11-23T20:28:34.711Z,4.60
2022-11-23T20:31:08.222Z,4.60
2022-11-23T20:33:35.037Z,4.60
2022-11-23T20:36:21.892Z,4.60
2022-11-23T20:38:48.917Z,4.60
2022-11-23T20:41:22.464Z,4.60
2022-11-23T20:43:49.576Z,4.60
2022-11-23T20:46:31.803Z,4.60
2022-11-23T20:49:03.395Z,4.60
2022-11-23T20:51:30.249Z,4.50
2022-11-23T20:53:57.302Z,4.50
2022-11-23T20:56:27.362Z,4.50
2022-11-23T20:58:55.544Z,4.50
2022-11-23T21:01:22.382Z,4.50
2022-11-23T21:03:51.830Z,4.50
2022-11-23T21:06:18.715Z,4.50
2022-11-23T21:08:46.015Z,4.60
2022-11-23T21:11:41.363Z,4.50
2022-11-23T21:14:30.625Z,4.50
2022-11-23T21:16:59.018Z,4.50
2022-11-23T21:19:37.541Z,4.50
2022-11-23T21:22:06.358Z,4.50
2022-11-23T21:24:35.113Z,4.50
2022-11-23T21:27:03.286Z,4.50
2022-11-23T21:29:30.215Z,4.50
2022-11-23T21:31:56.985Z,4.50
2022-11-23T21:34:25.902Z,4.50
2022-11-23T21:36:53.259Z,4.40
2022-11-23T21:39:20.234Z,4.40
2022-11-23T21:41:47.523Z,4.40
2022-11-23T21:44:14.294Z,4.50
2022-11-23T21:46:41.283Z,4.50
2022-11-23T21:49:08.304Z,4.50
2022-11-23T21:51:35.542Z,4.50
2022-11-23T21:54:04.024Z,4.40
2022-11-23T21:56:30.919Z,4.40
2022-11-23T21:58:57.788Z,4.40
2022-11-23T22:01:25.409Z,4.50
2022-11-23T22:03:54.382Z,4.50
2022-11-23T22:06:21.282Z,4.50
2022-11-23T22:08:49.324Z,4.40
2022-11-23T22:11:21.715Z,4.40
2022-11-23T22:13:48.577Z,4.30
2022-11-23T22:16:20.159Z,4.30
2022-11-23T22:18:52.603Z,4.40
2022-11-23T22:21:22.990Z,4.40
2022-11-23T22:23:49.735Z,4.30
2022-11-23T22:26:17.687Z,4.30
2022-11-23T22:28:45.674Z,4.30
2022-11-23T22:31:13.404Z,4.30
2022-11-23T22:33:40.473Z,4.30
2022-11-23T22:36:08.030Z,4.30
2022-11-23T22:38:34.806Z,4.30
2022-11-23T22:41:01.964Z,4.40
2022-11-23T22:43:29.043Z,4.40
2022-11-23T22:46:05.256Z,4.40
2022-11-23T22:48:32.517Z,4.30
2022-11-23T22:51:00.464Z,4.40
2022-11-23T22:53:29.448Z,4.40
2022-11-23T22:56:03.752Z,4.40
2022-11-23T22:58:31.076Z,4.20
2022-11-23T23:00:58.020Z,4.00
2022-11-23T23:03:24.930Z,3.90
2022-11-23T23:05:55.472Z,3.80
2022-11-23T23:08:22.629Z,3.90
2022-11-23T23:10:49.736Z,4.00
2022-11-23T23:13:16.600Z,3.90
2022-11-23T23:15:43.412Z,3.90
2022-11-23T23:18:10.514Z,4.00
2022-11-23T23:20:37.824Z,4.00
2022-11-23T23:23:04.989Z,3.90
2022-11-23T23:25:32.296Z,3.80
2022-11-23T23:27:59.058Z,3.80
2022-11-23T23:30:25.765Z,3.80
2022-11-23T23:32:54.224Z,3.80
2022-11-23T23:35:21.080Z,3.80
2022-11-23T23:37:51.271Z,3.90
2022-11-23T23:40:18.097Z,3.90
2022-11-23T23:42:44.844Z,3.90
2022-11-23T23:45:11.519Z,3.90
2022-11-23T23:47:38.799Z,3.90
2022-11-23T23:50:06.004Z,3.90
2022-11-23T23:52:32.727Z,3.80
2022-11-23T23:54:59.404Z,3.90
2022-11-23T23:57:26.356Z,3.80
2022-11-23T23:59:53.361Z,3.90
